createdAt,value
2019-05-12T00:01:11.539Z,5.20
2019-05-12T00:03:40.841Z,5.10
2019-05-12T00:06:10.147Z,5.10
2019-05-12T00:08:39.454Z,5.00
2019-05-12T00:11:09.054Z,5.00
2019-05-12T00:13:38.842Z,4.90
2019-05-12T00:16:08.795Z,4.90
2019-05-12T00:18:38.325Z,4.90
2019-05-12T00:21:08.827Z,4.80
2019-05-12T00:23:58.209Z,4.80
2019-05-12T00:26:28.314Z,4.80
2019-05-12T00:28:58.828Z,4.70
2019-05-12T00:31:29.381Z,4.70
2019-05-12T00:34:00.546Z,4.70
2019-05-12T00:36:29.850Z,4.60
2019-05-12T00:39:02.517Z,4.60
2019-05-12T00:41:31.818Z,4.50
2019-05-12T00:44:01.117Z,4.50
2019-05-12T00:46:30.430Z,4.50
2019-05-12T00:48:59.737Z,4.50
2019-05-12T00:51:30.234Z,4.50
2019-05-12T00:53:59.538Z,4.40
2019-05-12T00:56:28.914Z,4.40
2019-05-12T00:58:58.215Z,4.50
2019-05-12T01:01:28.579Z,4.50
2019-05-12T01:03:58.108Z,4.50
2019-05-12T01:06:28.212Z,4.50
2019-05-12T01:08:58.583Z,4.60
2019-05-12T01:11:28.545Z,4.50
2019-05-12T01:13:58.387Z,4.50
2019-05-12T01:16:28.922Z,4.50
2019-05-12T01:18:58.686Z,4.50
2019-05-12T01:21:28.709Z,4.50
2019-05-12T01:24:03.269Z,4.50
2019-05-12T01:26:30.242Z,4.50
2019-05-12T01:28:59.549Z,4.50
2019-05-12T01:31:30.506Z,4.50
2019-05-12T01:33:59.814Z,4.50
2019-05-12T01:36:29.194Z,4.60
2019-05-12T01:38:59.166Z,4.60
2019-05-12T01:41:30.358Z,4.60
2019-05-12T01:43:59.796Z,4.60
2019-05-12T01:46:29.093Z,4.60
2019-05-12T01:48:59.077Z,4.70
2019-05-12T01:51:28.585Z,4.70
2019-05-12T01:54:11.034Z,4.70
2019-05-12T01:56:28.940Z,4.70
2019-05-12T01:58:58.298Z,4.70
2019-05-12T02:01:28.080Z,4.70
2019-05-12T02:03:58.669Z,4.80
2019-05-12T02:06:28.074Z,4.80
2019-05-12T02:08:59.098Z,4.80
2019-05-12T02:11:34.590Z,4.90
2019-05-12T02:14:04.937Z,4.90
2019-05-12T02:16:34.241Z,4.90
2019-05-12T02:19:03.545Z,4.90
2019-05-12T02:21:32.851Z,4.90
2019-05-12T02:24:02.157Z,4.80
2019-05-12T02:26:31.472Z,4.80
2019-05-12T02:29:00.770Z,4.80
2019-05-12T02:31:30.087Z,4.80
2019-05-12T02:33:59.412Z,4.80
2019-05-12T02:36:28.778Z,4.80
2019-05-12T02:38:58.079Z,4.70
2019-05-12T02:41:27.391Z,4.70
2019-05-12T02:43:57.202Z,4.70
2019-05-12T02:46:26.510Z,4.70
2019-05-12T02:48:55.834Z,4.70
2019-05-12T02:51:25.378Z,4.70
2019-05-12T02:53:55.368Z,4.70
2019-05-12T02:56:25.955Z,4.70
2019-05-12T02:58:56.738Z,4.70
2019-05-12T03:01:28.622Z,4.70
2019-05-12T03:03:59.961Z,4.60
2019-05-12T03:06:30.707Z,4.60
2019-05-12T03:09:05.377Z,4.60
2019-05-12T03:11:36.294Z,4.60
2019-05-12T03:14:05.598Z,4.50
2019-05-12T03:16:35.292Z,4.50
2019-05-12T03:19:05.417Z,4.50
2019-05-12T03:21:35.641Z,4.50
2019-05-12T03:24:06.833Z,4.50
2019-05-12T03:26:37.449Z,4.40
2019-05-12T03:29:07.654Z,4.40
2019-05-12T03:31:41.323Z,4.30
2019-05-12T03:34:10.853Z,4.30
2019-05-12T03:36:42.848Z,4.30
2019-05-12T03:39:09.981Z,4.30
2019-05-12T03:41:39.287Z,4.30
2019-05-12T03:44:09.803Z,4.30
2019-05-12T03:46:39.111Z,4.20
2019-05-12T03:49:08.422Z,4.20
2019-05-12T03:51:37.798Z,4.20
2019-05-12T03:54:07.981Z,4.20
2019-05-12T03:56:37.317Z,4.20
2019-05-12T03:59:06.623Z,4.20
2019-05-12T04:01:36.886Z,4.20
2019-05-12T04:04:06.527Z,4.30
2019-05-12T04:06:35.892Z,4.30
2019-05-12T04:09:07.617Z,4.30
2019-05-12T04:11:37.294Z,4.40
2019-05-12T04:14:06.664Z,4.40
2019-05-12T04:16:36.660Z,4.50
2019-05-12T04:19:06.231Z,4.60
2019-05-12T04:21:36.690Z,4.70
2019-05-12T04:24:06.280Z,4.80
2019-05-12T04:26:36.644Z,4.80
2019-05-12T04:29:06.237Z,4.90
2019-05-12T04:31:36.651Z,4.90
2019-05-12T04:34:06.006Z,5.00
2019-05-12T04:36:35.884Z,5.00
2019-05-12T04:39:06.686Z,5.10
2019-05-12T04:41:36.300Z,5.20
2019-05-12T04:44:06.121Z,5.20
2019-05-12T04:46:37.070Z,5.30
2019-05-12T04:49:07.372Z,5.30
2019-05-12T04:51:36.674Z,5.40
2019-05-12T04:54:06.467Z,5.50
2019-05-12T04:56:36.873Z,5.50
2019-05-12T04:59:06.302Z,5.70
2019-05-12T05:01:36.687Z,5.70
2019-05-12T05:04:06.151Z,5.70
2019-05-12T05:06:35.945Z,5.80
2019-05-12T05:09:07.574Z,5.80
2019-05-12T05:11:36.959Z,5.90
2019-05-12T05:14:06.284Z,5.90
2019-05-12T05:16:35.652Z,6.00
2019-05-12T05:19:04.953Z,5.90
2019-05-12T05:21:34.616Z,5.90
2019-05-12T05:24:04.168Z,5.80
2019-05-12T05:26:37.280Z,5.70
2019-05-12T05:29:05.261Z,5.70
2019-05-12T05:31:34.566Z,5.70
2019-05-12T05:34:04.925Z,5.80
2019-05-12T05:36:34.908Z,5.90
2019-05-12T05:39:06.796Z,5.90
2019-05-12T05:41:40.106Z,5.90
2019-05-12T05:44:07.205Z,5.80
2019-05-12T05:46:38.991Z,5.80
2019-05-12T05:49:07.988Z,5.80
2019-05-12T05:51:39.643Z,5.90
2019-05-12T05:54:08.748Z,6.00
2019-05-12T05:56:42.707Z,6.10
2019-05-12T05:59:09.541Z,6.20
2019-05-12T06:01:40.251Z,6.30
2019-05-12T06:04:09.854Z,6.40
2019-05-12T06:06:42.531Z,6.60
2019-05-12T06:09:13.999Z,6.70
2019-05-12T06:11:43.739Z,6.80
2019-05-12T06:14:16.152Z,7.00
2019-05-12T06:16:44.309Z,7.10
2019-05-12T06:19:14.183Z,7.30
2019-05-12T06:21:44.674Z,7.30
2019-05-12T06:24:19.626Z,7.50
2019-05-12T06:26:56.838Z,7.80
2019-05-12T06:29:20.334Z,8.00
2019-05-12T06:31:47.010Z,8.00
2019-05-12T06:34:20.749Z,8.20
2019-05-12T06:36:47.386Z,8.30
2019-05-12T06:39:20.572Z,8.20
2019-05-12T06:41:48.685Z,8.10
2019-05-12T06:44:19.518Z,8.20
2019-05-12T06:46:53.538Z,8.40
2019-05-12T06:49:21.613Z,8.30
2019-05-12T06:51:53.737Z,8.40
2019-05-12T06:54:24.619Z,8.50
2019-05-12T06:56:57.819Z,8.60
2019-05-12T06:59:25.121Z,8.50
2019-05-12T07:01:56.089Z,8.40
2019-05-12T07:04:25.433Z,8.30
2019-05-12T07:07:00.463Z,8.40
2019-05-12T07:09:28.338Z,8.50
2019-05-12T07:12:02.789Z,8.90
2019-05-12T07:14:29.485Z,9.10
2019-05-12T07:17:02.811Z,9.10
2019-05-12T07:19:33.607Z,9.10
2019-05-12T07:22:03.637Z,8.80
2019-05-12T07:24:34.185Z,8.80
2019-05-12T07:27:08.945Z,8.70
2019-05-12T07:29:36.037Z,8.80
2019-05-12T07:32:07.144Z,9.00
2019-05-12T07:34:36.610Z,9.40
2019-05-12T07:37:06.985Z,9.50
2019-05-12T07:39:47.262Z,9.60
2019-05-12T07:42:09.010Z,9.80
2019-05-12T07:44:44.039Z,10.20
2019-05-12T07:47:13.767Z,10.10
2019-05-12T07:49:44.199Z,9.60
2019-05-12T07:52:14.656Z,9.30
2019-05-12T07:54:44.401Z,9.20
2019-05-12T07:57:17.386Z,9.10
2019-05-12T07:59:45.618Z,8.90
2019-05-12T08:02:14.926Z,9.10
2019-05-12T08:04:44.229Z,9.90
2019-05-12T08:07:14.516Z,10.50
2019-05-12T08:09:44.127Z,11.40
2019-05-12T08:12:19.448Z,11.90
2019-05-12T08:14:44.458Z,12.70
2019-05-12T08:17:19.293Z,13.00
2019-05-12T08:19:44.917Z,12.90
2019-05-12T08:22:18.821Z,13.20
2019-05-12T08:24:47.996Z,12.70
2019-05-12T08:27:16.247Z,13.30
2019-05-12T08:29:45.653Z,13.50
2019-05-12T08:32:18.711Z,13.40
2019-05-12T08:34:47.242Z,14.10
2019-05-12T08:37:16.546Z,14.50
2019-05-12T08:39:45.853Z,14.10
2019-05-12T08:42:15.173Z,13.50
2019-05-12T08:44:44.538Z,12.50
2019-05-12T08:47:15.219Z,11.50
2019-05-12T08:49:53.609Z,11.20
2019-05-12T08:52:16.728Z,10.70
2019-05-12T08:54:49.340Z,10.80
2019-05-12T08:57:17.038Z,11.90
2019-05-12T08:59:46.347Z,12.40
2019-05-12T09:02:15.654Z,12.30
2019-05-12T09:04:51.260Z,12.70
2019-05-12T09:07:16.273Z,13.30
2019-05-12T09:09:45.613Z,13.90
2019-05-12T09:12:14.921Z,14.50
2019-05-12T09:14:46.242Z,14.80
2019-05-12T09:17:15.239Z,15.00
2019-05-12T09:19:44.546Z,15.20
2019-05-12T09:22:20.425Z,15.60
2019-05-12T09:24:44.877Z,14.70
2019-05-12T09:27:15.621Z,13.60
2019-05-12T09:29:44.925Z,13.50
2019-05-12T09:32:14.634Z,14.20
2019-05-12T09:34:52.735Z,14.90
2019-05-12T09:37:15.121Z,15.60
2019-05-12T09:39:47.248Z,14.90
2019-05-12T09:42:19.294Z,14.70
2019-05-12T09:44:47.701Z,14.10
2019-05-12T09:47:23.534Z,13.50
2019-05-12T09:49:48.025Z,13.60
2019-05-12T09:52:22.725Z,12.90
2019-05-12T09:54:48.741Z,13.30
2019-05-12T09:57:18.059Z,14.30
2019-05-12T09:59:57.339Z,15.00
2019-05-12T10:02:20.951Z,15.10
2019-05-12T10:04:56.417Z,16.10
2019-05-12T10:07:23.293Z,16.50
2019-05-12T10:09:55.075Z,15.60
2019-05-12T10:12:23.632Z,14.60
2019-05-12T10:14:53.504Z,15.30
2019-05-12T10:17:26.262Z,15.80
2019-05-12T10:19:58.092Z,16.90
2019-05-12T10:22:30.019Z,17.30
2019-05-12T10:24:58.905Z,15.90
2019-05-12T10:27:31.910Z,14.90
2019-05-12T10:30:03.175Z,14.10
2019-05-12T10:32:30.291Z,14.00
2019-05-12T10:34:59.746Z,15.20
2019-05-12T10:37:29.527Z,16.40
2019-05-12T10:40:00.128Z,17.10
2019-05-12T10:42:29.433Z,17.80
2019-05-12T10:44:58.809Z,18.20
2019-05-12T10:47:28.129Z,17.10
2019-05-12T10:49:58.361Z,16.30
2019-05-12T10:52:29.458Z,15.50
2019-05-12T10:55:00.142Z,14.50
2019-05-12T10:57:29.461Z,14.60
2019-05-12T10:59:58.777Z,15.70
2019-05-12T11:02:30.413Z,16.00
2019-05-12T11:04:59.089Z,17.00
2019-05-12T11:07:29.969Z,17.20
2019-05-12T11:10:05.681Z,17.10
2019-05-12T11:12:33.316Z,17.20
2019-05-12T11:15:06.769Z,16.30
2019-05-12T11:17:54.021Z,15.30
2019-05-12T11:20:25.105Z,14.80
2019-05-12T11:22:54.649Z,16.10
2019-05-12T11:25:24.656Z,16.60
2019-05-12T11:27:54.891Z,16.60
2019-05-12T11:30:25.326Z,17.00
2019-05-12T11:32:54.633Z,16.30
2019-05-12T11:35:23.941Z,14.80
2019-05-12T11:37:53.843Z,14.20
2019-05-12T11:40:24.437Z,14.20
2019-05-12T11:42:59.525Z,15.20
2019-05-12T11:45:24.839Z,16.60
2019-05-12T11:47:56.918Z,17.40
2019-05-12T11:50:25.169Z,17.80
2019-05-12T11:52:54.476Z,18.40
2019-05-12T11:55:29.769Z,18.40
2019-05-12T11:58:00.355Z,17.60
2019-05-12T12:00:28.241Z,17.00
2019-05-12T12:02:57.545Z,17.20
2019-05-12T12:05:26.863Z,17.10
2019-05-12T12:07:56.493Z,17.80
2019-05-12T12:10:29.247Z,17.90
2019-05-12T12:12:56.989Z,18.00
2019-05-12T12:15:30.175Z,18.10
2019-05-12T12:17:57.329Z,18.00
2019-05-12T12:20:26.628Z,16.90
2019-05-12T12:23:00.221Z,16.30
2019-05-12T12:25:33.872Z,16.10
2019-05-12T12:28:04.271Z,16.70
2019-05-12T12:30:34.117Z,17.00
2019-05-12T12:33:04.292Z,17.10
2019-05-12T12:35:34.809Z,17.70
2019-05-12T12:38:04.386Z,18.00
2019-05-12T12:40:33.841Z,17.30
2019-05-12T12:43:03.998Z,16.30
2019-05-12T12:45:39.916Z,15.60
2019-05-12T12:48:06.449Z,15.10
2019-05-12T12:50:35.789Z,14.40
2019-05-12T12:53:05.161Z,15.50
2019-05-12T12:55:37.938Z,16.90
2019-05-12T12:58:06.106Z,17.30
2019-05-12T13:00:46.870Z,17.50
2019-05-12T13:03:06.489Z,18.30
2019-05-12T13:05:35.793Z,18.90
2019-05-12T13:08:06.029Z,19.40
2019-05-12T13:10:40.376Z,19.60
2019-05-12T13:13:06.345Z,20.00
2019-05-12T13:15:35.654Z,19.40
2019-05-12T13:18:04.964Z,19.60
2019-05-12T13:20:34.441Z,20.00
2019-05-12T13:23:04.218Z,19.50
2019-05-12T13:25:38.814Z,18.50
2019-05-12T13:28:10.211Z,19.40
2019-05-12T13:30:46.346Z,20.50
2019-05-12T13:33:14.792Z,19.70
2019-05-12T13:35:39.483Z,19.20
2019-05-12T13:38:09.741Z,19.40
2019-05-12T13:40:39.523Z,20.90
2019-05-12T13:43:14.237Z,21.20
2019-05-12T13:45:39.941Z,21.50
2019-05-12T13:48:15.868Z,21.80
2019-05-12T13:50:43.345Z,21.70
2019-05-12T13:53:13.901Z,20.20
2019-05-12T13:55:47.500Z,18.20
2019-05-12T13:58:15.077Z,19.20
2019-05-12T14:00:50.505Z,18.80
2019-05-12T14:03:17.429Z,18.20
2019-05-12T14:05:50.779Z,19.40
2019-05-12T14:08:17.762Z,21.60
2019-05-12T14:10:54.498Z,23.20
2019-05-12T14:13:19.165Z,22.50
2019-05-12T14:15:48.491Z,19.90
2019-05-12T14:18:20.567Z,17.80
2019-05-12T14:20:50.745Z,16.40
2019-05-12T14:23:19.851Z,15.60
2019-05-12T14:25:49.185Z,15.20
2019-05-12T14:28:18.490Z,14.90
2019-05-12T14:30:51.591Z,14.50
2019-05-12T14:33:18.808Z,14.30
2019-05-12T14:35:48.113Z,14.10
2019-05-12T14:38:19.321Z,13.90
2019-05-12T14:40:49.041Z,13.60
2019-05-12T14:43:21.942Z,13.60
2019-05-12T14:45:51.507Z,13.40
2019-05-12T14:48:20.839Z,13.40
2019-05-12T14:50:50.149Z,13.40
2019-05-12T14:53:19.450Z,13.40
2019-05-12T14:55:49.605Z,13.40
2019-05-12T14:58:20.666Z,13.30
2019-05-12T15:00:50.894Z,13.40
2019-05-12T15:03:20.922Z,13.60
2019-05-12T15:05:50.262Z,13.60
2019-05-12T15:08:21.174Z,13.50
2019-05-12T15:10:50.565Z,13.50
2019-05-12T15:13:19.873Z,13.40
2019-05-12T15:15:50.076Z,13.60
2019-05-12T15:18:20.198Z,13.70
2019-05-12T15:20:50.172Z,13.90
2019-05-12T15:23:25.826Z,14.00
2019-05-12T15:25:53.658Z,14.80
2019-05-12T15:28:23.598Z,15.30
2019-05-12T15:30:54.697Z,15.30
2019-05-12T15:33:24.503Z,15.50
2019-05-12T15:35:54.654Z,15.50
2019-05-12T15:38:24.278Z,15.40
2019-05-12T15:40:53.926Z,15.30
2019-05-12T15:43:25.897Z,15.00
2019-05-12T15:45:59.364Z,14.50
2019-05-12T15:48:26.326Z,14.10
2019-05-12T15:50:59.541Z,13.90
2019-05-12T15:53:27.613Z,13.40
2019-05-12T15:55:58.595Z,13.30
2019-05-12T15:58:27.917Z,13.30
2019-05-12T16:00:58.112Z,13.30
2019-05-12T16:03:27.612Z,13.20
2019-05-12T16:06:01.417Z,13.20
2019-05-12T16:08:27.924Z,13.10
2019-05-12T16:10:57.258Z,13.10
2019-05-12T16:13:26.571Z,13.00
2019-05-12T16:16:03.188Z,13.10
2019-05-12T16:18:27.082Z,13.20
2019-05-12T16:21:03.940Z,13.30
2019-05-12T16:23:30.023Z,13.40
2019-05-12T16:26:01.332Z,13.50
2019-05-12T16:28:30.397Z,13.40
2019-05-12T16:31:07.114Z,13.40
2019-05-12T16:33:30.736Z,13.30
2019-05-12T16:36:05.624Z,13.10
2019-05-12T16:38:31.118Z,13.20
2019-05-12T16:41:00.430Z,13.30
2019-05-12T16:43:34.992Z,13.30
2019-05-12T16:46:00.769Z,13.10
2019-05-12T16:48:33.254Z,12.90
2019-05-12T16:51:03.151Z,12.70
2019-05-12T16:53:34.001Z,12.50
2019-05-12T16:56:05.929Z,12.40
2019-05-12T16:58:35.560Z,12.30
2019-05-12T17:01:05.026Z,12.10
2019-05-12T17:03:34.348Z,12.10
2019-05-12T17:06:03.881Z,12.30
2019-05-12T17:08:34.397Z,12.40
2019-05-12T17:11:23.022Z,12.50
2019-05-12T17:13:35.770Z,12.50
2019-05-12T17:16:05.117Z,12.40
2019-05-12T17:18:34.426Z,12.40
2019-05-12T17:21:04.388Z,12.20
2019-05-12T17:23:39.559Z,12.00
2019-05-12T17:26:08.870Z,11.80
2019-05-12T17:28:38.179Z,11.80
2019-05-12T17:31:08.605Z,11.80
2019-05-12T17:33:39.318Z,11.80
2019-05-12T17:36:34.315Z,11.90
2019-05-12T17:39:06.436Z,11.90
2019-05-12T17:41:40.409Z,11.90
2019-05-12T17:44:06.933Z,12.00
2019-05-12T17:46:44.162Z,12.00
2019-05-12T17:49:16.059Z,11.90
2019-05-12T17:51:44.822Z,11.90
2019-05-12T17:54:21.616Z,11.90
2019-05-12T17:56:47.485Z,11.90
2019-05-12T17:59:23.600Z,11.80
2019-05-12T18:01:49.250Z,11.80
2019-05-12T18:04:20.311Z,11.70
2019-05-12T18:06:49.625Z,11.70
2019-05-12T18:09:20.259Z,11.60
2019-05-12T18:11:52.565Z,11.40
2019-05-12T18:14:24.661Z,11.30
2019-05-12T18:16:53.634Z,11.20
2019-05-12T18:19:24.182Z,11.00
2019-05-12T18:22:09.321Z,10.90
2019-05-12T18:24:35.711Z,10.90
2019-05-12T18:27:07.793Z,10.80
2019-05-12T18:29:36.096Z,10.70
2019-05-12T18:32:42.922Z,10.60
2019-05-12T18:35:13.614Z,10.40
2019-05-12T18:37:43.367Z,10.20
2019-05-12T18:40:14.745Z,10.20
2019-05-12T18:42:44.230Z,10.10
2019-05-12T18:45:17.888Z,10.00
2019-05-12T18:47:44.754Z,10.00
2019-05-12T18:50:14.803Z,10.00
2019-05-12T18:52:46.283Z,9.90
2019-05-12T18:55:16.659Z,9.80
2019-05-12T18:57:49.895Z,9.80
2019-05-12T19:00:20.367Z,9.70
2019-05-12T19:02:51.195Z,9.70
2019-05-12T19:05:27.511Z,9.70
2019-05-12T19:07:54.129Z,9.70
2019-05-12T19:10:24.182Z,9.70
2019-05-12T19:13:01.311Z,9.70
2019-05-12T19:15:24.769Z,9.60
2019-05-12T19:17:54.335Z,9.60
2019-05-12T19:20:24.179Z,9.50
2019-05-12T19:22:59.353Z,9.40
2019-05-12T19:25:24.713Z,9.30
2019-05-12T19:28:01.970Z,9.30
2019-05-12T19:30:34.463Z,9.10
2019-05-12T19:33:08.497Z,9.00
2019-05-12T19:35:37.551Z,9.00
2019-05-12T19:38:05.993Z,8.90
2019-05-12T19:40:38.327Z,8.80
2019-05-12T19:43:08.469Z,8.80
2019-05-12T19:45:37.915Z,8.70
2019-05-12T19:48:07.218Z,8.70
2019-05-12T19:50:38.533Z,8.60
2019-05-12T19:53:10.327Z,8.60
2019-05-12T19:55:38.923Z,8.40
2019-05-12T19:58:11.409Z,8.30
2019-05-12T20:00:43.650Z,8.20
2019-05-12T20:03:13.861Z,8.10
2019-05-12T20:05:44.469Z,8.00
2019-05-12T20:08:13.864Z,7.90
2019-05-12T20:10:47.768Z,7.90
2019-05-12T20:13:15.849Z,7.90
2019-05-12T20:15:45.213Z,7.80
2019-05-12T20:18:14.840Z,7.80
2019-05-12T20:20:45.289Z,7.80
2019-05-12T20:23:14.602Z,7.70
2019-05-12T20:25:44.382Z,7.70
2019-05-12T20:28:14.500Z,7.70
2019-05-12T20:30:44.260Z,7.70
2019-05-12T20:33:13.909Z,7.60
2019-05-12T20:35:47.372Z,7.50
2019-05-12T20:38:15.270Z,7.50
2019-05-12T20:40:44.587Z,7.40
2019-05-12T20:43:15.028Z,7.30
2019-05-12T20:45:45.740Z,7.30
2019-05-12T20:48:19.597Z,7.20
2019-05-12T20:50:47.977Z,7.20
2019-05-12T20:53:21.893Z,7.10
2019-05-12T20:55:48.306Z,7.10
2019-05-12T20:58:18.086Z,7.20
2019-05-12T21:00:50.168Z,7.10
2019-05-12T21:03:18.417Z,7.00
2019-05-12T21:05:50.527Z,6.90
2019-05-12T21:08:19.756Z,6.80
2019-05-12T21:10:49.075Z,6.70
2019-05-12T21:13:20.337Z,6.60
2019-05-12T21:15:50.325Z,6.50
2019-05-12T21:18:19.648Z,6.50
2019-05-12T21:20:52.156Z,6.40
2019-05-12T21:23:20.111Z,6.30
2019-05-12T21:25:52.328Z,6.20
2019-05-12T21:28:28.251Z,6.10
2019-05-12T21:30:57.546Z,6.00
2019-05-12T21:33:31.347Z,5.90
2019-05-12T21:35:57.870Z,5.80
2019-05-12T21:38:29.533Z,5.70
2019-05-12T21:41:10.106Z,5.70
2019-05-12T21:43:39.629Z,5.60
2019-05-12T21:46:12.427Z,5.50
2019-05-12T21:48:39.958Z,5.40
2019-05-12T21:51:16.583Z,5.30
2019-05-12T21:53:40.283Z,5.30
2019-05-12T21:56:15.558Z,5.30
2019-05-12T21:58:53.742Z,5.30
2019-05-12T22:01:18.741Z,5.30
2019-05-12T22:04:02.108Z,5.30
2019-05-12T22:06:25.859Z,5.30
2019-05-12T22:09:01.069Z,5.30
2019-05-12T22:11:27.854Z,5.20
2019-05-12T22:14:00.260Z,5.00
2019-05-12T22:16:36.980Z,4.80
2019-05-12T22:19:00.879Z,4.80
2019-05-12T22:21:30.191Z,4.70
2019-05-12T22:23:59.509Z,4.60
2019-05-12T22:26:30.606Z,4.40
2019-05-12T22:28:59.851Z,4.40
2019-05-12T22:31:29.277Z,4.50
2019-05-12T22:33:58.592Z,4.60
2019-05-12T22:36:30.106Z,4.70
2019-05-12T22:39:01.006Z,4.70
2019-05-12T22:41:36.851Z,4.80
2019-05-12T22:44:07.453Z,4.90
2019-05-12T22:46:38.185Z,5.00
2019-05-12T22:49:10.346Z,5.00
2019-05-12T22:51:38.653Z,5.10
2019-05-12T22:54:10.584Z,5.10
2019-05-12T22:56:38.977Z,5.10
2019-05-12T22:59:09.625Z,5.10
2019-05-12T23:01:41.621Z,5.00
2019-05-12T23:04:10.482Z,5.00
2019-05-12T23:06:42.270Z,5.00
2019-05-12T23:09:10.818Z,5.00
2019-05-12T23:11:40.117Z,4.90
2019-05-12T23:14:12.734Z,4.90
2019-05-12T23:16:40.446Z,4.80
2019-05-12T23:19:11.947Z,4.70
2019-05-12T23:21:40.915Z,4.60
2019-05-12T23:24:10.226Z,4.50
2019-05-12T23:26:42.154Z,4.40
2019-05-12T23:29:10.566Z,4.30
2019-05-12T23:31:39.908Z,4.20
2019-05-12T23:34:16.948Z,4.10
2019-05-12T23:36:50.342Z,4.10
2019-05-12T23:39:17.886Z,4.20
2019-05-12T23:41:47.193Z,4.10
2019-05-12T23:44:23.962Z,4.10
2019-05-12T23:46:53.878Z,4.00
2019-05-12T23:49:24.463Z,4.00
2019-05-12T23:51:55.396Z,4.00
2019-05-12T23:54:24.725Z,3.90
2019-05-12T23:56:54.102Z,3.80
2019-05-12T23:59:24.081Z,3.70
